Time;durP1;ratioP1;P1;durP2;ratioP2;P2;SDS_P1;SDS_P2;PMS_P1;PMS_P2;Temp;Humidity;BMP_temperature;BMP_pressure;BME280_temperature;BME280_humidity;BME280_pressure;Samples;Min_cycle;Max_cycle;Signal;HPM_P1;HPM_P2
2022/11/21 00:00:23;;;;;;;24.48;9.48;;;4.00;94.90;;;;;;5069162;28;20509;-73
2022/11/21 00:02:49;;;;;;;17.25;8.95;;;4.00;94.80;;;;;;5073676;28;20112;-71
2022/11/21 00:05:15;;;;;;;18.88;8.98;;;4.00;94.80;;;;;;5073290;28;20123;-72
2022/11/21 00:07:40;;;;;;;23.42;9.98;;;4.00;94.80;;;;;;5073340;28;20048;-72
2022/11/21 00:10:06;;;;;;;18.95;8.55;;;4.00;94.80;;;;;;5073359;28;20107;-72
2022/11/21 00:12:32;;;;;;;17.02;9.02;;;4.00;94.80;;;;;;5055822;28;20021;-73
2022/11/21 00:14:58;;;;;;;20.13;8.98;;;3.90;94.70;;;;;;5073590;28;20032;-72
2022/11/21 00:17:23;;;;;;;16.23;8.80;;;3.90;94.80;;;;;;5073735;28;20029;-73
2022/11/21 00:19:49;;;;;;;21.63;9.88;;;4.00;94.90;;;;;;5073311;28;20036;-73
2022/11/21 00:22:15;;;;;;;20.73;10.02;;;4.00;94.80;;;;;;5072422;28;20363;-73
2022/11/21 00:24:41;;;;;;;19.75;9.45;;;3.90;94.70;;;;;;5074022;28;20256;-73
2022/11/21 00:27:06;;;;;;;19.92;9.57;;;4.00;94.70;;;;;;5073764;28;20378;-74
2022/11/21 00:29:32;;;;;;;19.05;9.43;;;3.90;94.60;;;;;;5073378;28;20156;-73
2022/11/21 00:31:58;;;;;;;23.13;10.68;;;3.90;94.60;;;;;;5073146;28;20029;-72
2022/11/21 00:34:23;;;;;;;18.60;10.52;;;3.90;94.70;;;;;;5073280;28;20020;-73
2022/11/21 00:36:49;;;;;;;19.70;9.05;;;3.90;94.70;;;;;;5073702;28;20101;-73
2022/11/21 00:39:15;;;;;;;18.60;9.35;;;4.00;94.90;;;;;;5072972;28;20048;-73
2022/11/21 00:41:40;;;;;;;18.55;9.77;;;4.10;94.80;;;;;;5073083;28;20071;-73
2022/11/21 00:44:06;;;;;;;22.02;9.57;;;4.20;94.80;;;;;;5068313;28;20071;-72
2022/11/21 00:46:32;;;;;;;19.17;9.45;;;4.20;94.70;;;;;;5052865;28;20067;-73
2022/11/21 00:48:57;;;;;;;20.50;10.13;;;4.20;94.60;;;;;;5053098;28;20434;-72
2022/11/21 00:51:23;;;;;;;22.27;10.73;;;4.20;94.80;;;;;;5052658;28;20029;-72
2022/11/21 00:53:49;;;;;;;19.52;9.35;;;4.10;95.00;;;;;;5051461;28;20122;-72
2022/11/21 00:56:15;;;;;;;17.98;9.18;;;4.10;95.20;;;;;;5051548;28;20044;-72
2022/11/21 00:58:41;;;;;;;17.27;8.40;;;4.00;95.10;;;;;;5052854;28;20113;-73
2022/11/21 01:01:10;;;;;;;22.40;10.10;;;4.00;95.30;;;;;;5052637;28;20170;-73
2022/11/21 01:03:35;;;;;;;20.10;9.65;;;4.00;95.30;;;;;;5053124;28;20431;-72
2022/11/21 01:06:07;;;;;;;18.38;9.43;;;3.90;95.20;;;;;;5052570;28;20044;-72
2022/11/21 01:08:35;;;;;;;20.10;10.20;;;3.80;95.20;;;;;;5052173;28;20037;-71
2022/11/21 01:11:09;;;;;;;22.83;9.88;;;3.80;95.10;;;;;;5052473;28;20029;-72
2022/11/21 01:13:35;;;;;;;20.70;9.68;;;3.80;95.20;;;;;;5051359;28;20394;-72
2022/11/21 01:16:06;;;;;;;19.80;9.57;;;3.90;95.10;;;;;;5052606;28;20336;-71
2022/11/21 01:18:32;;;;;;;17.88;9.40;;;3.90;95.00;;;;;;5052348;28;20044;-73
2022/11/21 01:21:04;;;;;;;18.33;9.15;;;3.80;95.00;;;;;;5052257;28;20022;-72
2022/11/21 01:23:29;;;;;;;22.38;9.65;;;3.90;95.00;;;;;;5067635;28;20120;-72
2022/11/21 01:26:01;;;;;;;21.65;8.85;;;3.90;95.30;;;;;;5052184;28;20378;-72
2022/11/21 01:28:27;;;;;;;19.67;9.48;;;3.90;95.60;;;;;;5052264;28;20037;-71
2022/11/21 01:30:52;;;;;;;25.27;9.98;;;4.00;95.60;;;;;;5051498;28;20333;-71
2022/11/21 01:33:18;;;;;;;23.17;10.05;;;4.10;95.30;;;;;;5052099;28;20029;-71
2022/11/21 01:35:44;;;;;;;21.13;10.02;;;4.10;95.30;;;;;;5052224;28;20033;-72
2022/11/21 01:38:09;;;;;;;18.42;9.90;;;4.10;95.70;;;;;;5067669;28;20036;-72
2022/11/21 01:40:39;;;;;;;18.85;9.15;;;4.00;95.40;;;;;;5050844;28;20025;-71
2022/11/21 01:43:13;;;;;;;19.08;9.05;;;3.90;95.70;;;;;;5054549;28;20110;-72
2022/11/21 01:46:02;;;;;;;18.77;9.75;;;3.90;95.80;;;;;;5072043;28;20040;-71
2022/11/21 01:48:35;;;;;;;19.88;9.98;;;3.90;95.90;;;;;;5071789;28;20154;-72
2022/11/21 01:51:12;;;;;;;21.33;9.63;;;3.90;96.00;;;;;;5071575;28;20050;-72
2022/11/21 01:53:40;;;;;;;18.20;9.15;;;4.00;96.10;;;;;;5054001;28;20025;-71
2022/11/21 01:56:08;;;;;;;18.73;10.15;;;3.90;96.10;;;;;;5071718;28;20112;-72
2022/11/21 01:58:34;;;;;;;22.70;10.73;;;4.00;96.20;;;;;;5071821;28;20132;-73
2022/11/21 02:01:01;;;;;;;25.33;11.73;;;4.10;96.40;;;;;;5072072;28;20028;-72
2022/11/21 02:03:31;;;;;;;18.92;10.60;;;4.10;96.70;;;;;;5071465;28;20360;-71
2022/11/21 02:05:58;;;;;;;20.27;10.45;;;4.10;96.60;;;;;;5071356;28;20021;-72
2022/11/21 02:08:26;;;;;;;19.35;10.00;;;4.00;96.60;;;;;;5071445;28;20041;-72
2022/11/21 02:11:09;;;;;;;;;;;4.10;96.70;;;;;;5071773;28;20135;-73
2022/11/21 02:13:35;;;;;;;19.45;9.70;;;4.00;96.70;;;;;;5071122;28;19977;-72
2022/11/21 02:16:01;;;;;;;19.65;10.27;;;4.00;96.70;;;;;;5071559;28;20396;-71
2022/11/21 02:18:27;;;;;;;23.60;10.90;;;4.00;96.80;;;;;;5071044;28;20508;-72
2022/11/21 02:21:04;;;;;;;25.55;11.00;;;3.90;96.80;;;;;;5070249;28;20040;-73
2022/11/21 02:23:43;;;;;;;20.73;10.60;;;3.80;97.00;;;;;;5071236;28;20044;-72
2022/11/21 02:26:09;;;;;;;23.42;10.43;;;3.80;97.10;;;;;;5071226;28;20398;-72
2022/11/21 02:28:35;;;;;;;21.25;10.35;;;3.80;97.10;;;;;;5070282;28;20140;-72
2022/11/21 02:31:01;;;;;;;22.83;11.52;;;3.80;97.10;;;;;;5071781;28;20100;-72
2022/11/21 02:33:27;;;;;;;22.60;10.77;;;3.70;97.20;;;;;;5071395;28;20127;-73
2022/11/21 02:36:35;;;;;;;25.58;11.48;;;3.60;97.30;;;;;;5079938;28;20524;-72
2022/11/21 02:39:01;;;;;;;24.27;11.43;;;3.60;97.40;;;;;;5057363;28;20036;-72
2022/11/21 02:41:28;;;;;;;18.45;9.65;;;3.50;97.40;;;;;;5091392;28;20039;-72
2022/11/21 02:44:04;;;;;;;22.67;11.60;;;3.50;97.40;;;;;;5091165;28;20044;-73
2022/11/21 02:46:29;;;;;;;22.52;11.38;;;3.50;97.50;;;;;;5091004;28;20032;-72
2022/11/21 02:48:57;;;;;;;22.90;11.77;;;3.40;97.60;;;;;;5091583;28;20024;-72
2022/11/21 02:51:23;;;;;;;25.77;12.18;;;3.30;97.70;;;;;;5090724;28;20294;-73
2022/11/21 02:53:48;;;;;;;21.80;11.27;;;3.30;97.80;;;;;;5090996;28;20063;-72
2022/11/21 02:56:14;;;;;;;24.23;12.70;;;3.30;97.80;;;;;;5073265;28;20472;-71
2022/11/21 02:58:39;;;;;;;26.52;13.20;;;3.20;97.80;;;;;;5091087;28;20486;-72
2022/11/21 03:01:05;;;;;;;25.75;12.85;;;3.20;97.90;;;;;;5091304;28;20036;-69
2022/11/21 03:03:32;;;;;;;26.42;13.05;;;3.20;98.10;;;;;;5091441;28;20077;-72
2022/11/21 03:05:57;;;;;;;26.45;13.82;;;3.10;98.10;;;;;;5091292;28;20051;-71
2022/11/21 03:08:23;;;;;;;25.95;12.63;;;3.10;98.10;;;;;;5090797;28;20472;-71
2022/11/21 03:10:49;;;;;;;29.60;14.15;;;3.10;98.30;;;;;;5090840;28;20346;-72
2022/11/21 03:13:14;;;;;;;29.95;14.45;;;3.00;98.30;;;;;;5090722;28;20134;-73
2022/11/21 03:15:40;;;;;;;27.95;14.15;;;3.00;98.30;;;;;;5091407;28;20060;-72
2022/11/21 03:18:05;;;;;;;29.52;13.38;;;3.00;98.30;;;;;;5073242;28;20024;-72
2022/11/21 03:20:33;;;;;;;28.65;13.95;;;3.00;98.40;;;;;;5072861;28;20040;-71
2022/11/21 03:22:59;;;;;;;25.38;12.85;;;2.90;98.40;;;;;;5090563;28;20038;-71
2022/11/21 03:25:25;;;;;;;30.13;13.82;;;3.00;98.40;;;;;;5090884;28;20024;-72
2022/11/21 03:27:52;;;;;;;28.05;14.00;;;2.90;98.40;;;;;;5091467;28;20051;-73
2022/11/21 03:30:22;;;;;;;32.40;14.32;;;2.90;98.50;;;;;;5091026;28;20027;-72
2022/11/21 03:32:48;;;;;;;26.35;13.18;;;2.90;98.40;;;;;;5072742;28;20109;-72
2022/11/21 03:35:14;;;;;;;30.80;14.00;;;2.90;98.20;;;;;;5090929;28;20050;-73
2022/11/21 03:37:39;;;;;;;29.40;13.23;;;2.90;98.60;;;;;;5076981;28;20454;-72
2022/11/21 03:40:06;;;;;;;24.17;12.07;;;2.90;98.20;;;;;;5094983;28;20023;-73
2022/11/21 03:42:32;;;;;;;27.77;12.07;;;2.90;98.20;;;;;;5094788;28;20111;-73
2022/11/21 03:44:57;;;;;;;28.08;13.50;;;3.00;98.10;;;;;;5094434;28;20127;-72
2022/11/21 03:47:24;;;;;;;28.50;13.85;;;3.00;98.10;;;;;;5094372;28;20032;-72
2022/11/21 03:49:50;;;;;;;24.30;12.40;;;2.90;98.00;;;;;;5094483;28;20028;-72
2022/11/21 03:52:15;;;;;;;25.15;13.05;;;2.80;98.00;;;;;;5094301;28;20039;-72
2022/11/21 03:54:41;;;;;;;27.15;13.77;;;2.90;98.00;;;;;;5094872;28;20035;-69
2022/11/21 03:57:07;;;;;;;26.35;13.02;;;2.80;98.00;;;;;;5076469;28;20442;-72
2022/11/21 03:59:32;;;;;;;26.45;12.77;;;2.80;98.00;;;;;;5094325;28;20040;-72
2022/11/21 04:01:58;;;;;;;25.02;13.25;;;2.90;97.90;;;;;;5094370;28;20074;-72
2022/11/21 04:04:23;;;;;;;30.15;13.95;;;2.80;97.90;;;;;;5094199;28;20457;-73
2022/11/21 04:06:49;;;;;;;27.25;13.65;;;2.80;98.20;;;;;;5076499;28;20024;-72
2022/11/21 04:09:15;;;;;;;28.35;13.77;;;2.80;98.00;;;;;;5094181;28;20046;-71
2022/11/21 04:11:40;;;;;;;30.35;14.45;;;3.00;98.10;;;;;;5076087;28;20028;-73
2022/11/21 04:14:06;;;;;;;32.50;13.63;;;2.80;98.00;;;;;;5093927;28;20039;-72
2022/11/21 04:16:32;;;;;;;29.30;14.23;;;2.70;97.80;;;;;;5094239;28;20101;-73
2022/11/21 04:18:57;;;;;;;29.63;14.48;;;2.70;97.90;;;;;;5094428;28;20016;-73
2022/11/21 04:21:23;;;;;;;26.63;13.55;;;2.70;97.80;;;;;;5093926;28;20025;-73
2022/11/21 04:23:48;;;;;;;24.83;13.13;;;2.60;97.70;;;;;;5093729;28;20024;-72
2022/11/21 04:26:14;;;;;;;29.92;13.50;;;2.40;97.50;;;;;;5076023;28;20028;-73
2022/11/21 04:28:40;;;;;;;27.92;15.18;;;2.30;97.60;;;;;;5075685;28;20051;-73
2022/11/21 04:31:07;;;;;;;27.73;11.95;;;2.20;97.70;;;;;;5093653;28;20413;-71
2022/11/21 04:33:33;;;;;;;25.50;13.45;;;2.20;97.60;;;;;;5094224;28;20028;-73
2022/11/21 04:35:58;;;;;;;23.15;13.18;;;2.20;97.60;;;;;;5075715;28;20339;-72
2022/11/21 04:38:24;;;;;;;26.75;13.15;;;2.20;97.70;;;;;;5093662;28;20491;-71
2022/11/21 04:40:50;;;;;;;26.58;13.20;;;2.00;97.50;;;;;;5093824;28;20350;-72
2022/11/21 04:43:16;;;;;;;22.70;11.95;;;2.00;97.70;;;;;;5093433;28;20546;-72
2022/11/21 04:45:43;;;;;;;28.88;12.75;;;2.10;97.70;;;;;;5093981;28;20031;-73
2022/11/21 04:48:09;;;;;;;29.80;14.48;;;2.10;97.60;;;;;;5075309;28;20032;-72
2022/11/21 04:50:35;;;;;;;26.67;13.65;;;2.10;97.50;;;;;;5093420;28;20518;-73
2022/11/21 04:53:01;;;;;;;26.55;12.73;;;1.90;97.40;;;;;;5075402;28;20036;-73
2022/11/21 04:55:30;;;;;;;27.15;11.80;;;1.90;97.50;;;;;;5093745;28;20028;-72
2022/11/21 04:57:55;;;;;;;26.92;12.30;;;2.00;97.50;;;;;;5093832;28;20111;-72
2022/11/21 05:00:21;;;;;;;27.02;12.57;;;1.90;97.30;;;;;;5075303;28;20128;-72
2022/11/21 05:02:47;;;;;;;22.73;12.52;;;1.80;97.40;;;;;;5093401;28;20324;-72
2022/11/21 05:05:13;;;;;;;28.42;13.75;;;1.70;97.30;;;;;;5093055;28;20032;-73
2022/11/21 05:07:39;;;;;;;24.45;13.02;;;1.70;97.40;;;;;;5093004;28;20042;-72
2022/11/21 05:10:06;;;;;;;28.67;13.00;;;1.60;97.40;;;;;;5093466;28;20416;-73
2022/11/21 05:15:16;;;;;;;29.55;13.45;;;1.60;97.40;;;;;;5092673;28;20259;-72
2022/11/21 05:17:42;;;;;;;26.20;12.75;;;1.60;97.20;;;;;;5092633;28;20357;-72
2022/11/21 05:20:08;;;;;;;28.33;12.98;;;1.50;97.10;;;;;;5092446;28;20029;-73
2022/11/21 05:22:34;;;;;;;26.10;12.43;;;1.60;97.30;;;;;;5092327;28;20035;-72
2022/11/21 05:25:00;;;;;;;28.75;12.45;;;1.70;97.20;;;;;;5074867;28;20028;-73
2022/11/21 05:27:25;;;;;;;26.88;13.23;;;1.70;97.10;;;;;;5074298;28;20043;-72
2022/11/21 05:29:52;;;;;;;25.88;12.63;;;1.60;96.90;;;;;;5092507;28;20097;-72
2022/11/21 05:32:17;;;;;;;23.85;11.98;;;1.70;97.00;;;;;;5092265;28;20032;-73
2022/11/21 05:34:43;;;;;;;25.65;13.25;;;1.90;97.10;;;;;;5092281;28;20034;-73
2022/11/21 05:37:09;;;;;;;26.23;12.68;;;1.80;96.80;;;;;;5074195;28;20417;-73
2022/11/21 05:39:35;;;;;;;29.88;12.80;;;1.70;96.60;;;;;;5074703;28;20178;-72
2022/11/21 05:42:00;;;;;;;26.17;12.30;;;1.80;96.90;;;;;;5092171;28;20058;-73
2022/11/21 05:44:26;;;;;;;28.08;12.85;;;1.70;96.70;;;;;;5092133;28;20051;-72
2022/11/21 05:46:52;;;;;;;28.33;13.68;;;1.80;96.90;;;;;;5092092;28;20044;-72
2022/11/21 05:49:17;;;;;;;29.73;13.73;;;1.90;97.00;;;;;;5074144;28;20169;-71
2022/11/21 05:51:43;;;;;;;24.60;13.70;;;2.00;97.30;;;;;;5092361;28;20017;-71
2022/11/21 05:54:13;;;;;;;26.58;13.55;;;2.00;97.40;;;;;;5092130;28;20127;-72
2022/11/21 05:56:39;;;;;;;28.45;13.55;;;2.00;97.50;;;;;;5092045;28;20048;-73
2022/11/21 05:59:04;;;;;;;26.30;13.45;;;2.00;97.40;;;;;;5091601;28;20522;-71
2022/11/21 06:04:15;;;;;;;32.15;14.75;;;2.00;97.40;;;;;;5092264;28;20028;-73
2022/11/21 06:06:40;;;;;;;26.27;13.15;;;2.10;97.80;;;;;;5092598;28;20028;-72
2022/11/21 06:09:06;;;;;;;30.10;13.63;;;2.20;97.80;;;;;;5092068;28;20043;-73
2022/11/21 06:11:32;;;;;;;30.88;14.55;;;2.20;98.00;;;;;;5091786;28;20458;-73
2022/11/21 06:13:57;;;;;;;32.47;14.80;;;2.10;98.10;;;;;;5091579;28;20458;-72
2022/11/21 06:16:23;;;;;;;29.40;14.52;;;2.20;98.20;;;;;;5073770;28;20437;-73
2022/11/21 06:18:53;;;;;;;33.78;15.43;;;2.20;98.20;;;;;;5092027;28;20093;-72
2022/11/21 06:21:24;;;;;;;30.75;14.60;;;2.30;98.20;;;;;;5091590;28;20028;-73
2022/11/21 06:23:53;;;;;;;33.42;16.52;;;2.30;98.20;;;;;;5073404;28;20036;-72
2022/11/21 06:26:21;;;;;;;33.78;15.68;;;2.20;98.30;;;;;;5091534;28;20040;-73
2022/11/21 06:28:47;;;;;;;31.95;15.68;;;2.20;98.30;;;;;;5091456;28;20044;-72
2022/11/21 06:31:15;;;;;;;34.03;14.75;;;2.20;98.40;;;;;;5091320;28;20056;-72
2022/11/21 06:33:41;;;;;;;;;;;2.10;98.50;;;;;;5093082;28;20103;-72
2022/11/21 06:36:15;;;;;;;31.20;15.27;;;2.20;98.60;;;;;;5091285;28;20015;-72
2022/11/21 06:38:41;;;;;;;38.72;15.43;;;2.20;98.70;;;;;;5073260;28;20097;-72
2022/11/21 06:41:11;;;;;;;38.72;15.55;;;2.20;98.60;;;;;;5091144;28;20420;-73
2022/11/21 06:43:38;;;;;;;31.90;15.82;;;2.20;98.60;;;;;;5068828;28;20093;-72
2022/11/21 06:46:04;;;;;;;32.65;15.23;;;2.30;98.60;;;;;;5070623;28;20033;-72
2022/11/21 06:48:30;;;;;;;35.00;15.85;;;2.30;98.90;;;;;;5071406;28;20051;-72
2022/11/21 06:50:56;;;;;;;37.30;15.65;;;2.30;98.70;;;;;;5071324;28;20058;-73
2022/11/21 06:53:23;;;;;;;34.20;14.60;;;2.20;98.60;;;;;;5071126;28;20502;-74
2022/11/21 06:55:48;;;;;;;33.83;15.90;;;2.20;98.60;;;;;;5071777;28;20311;-72
2022/11/21 06:58:14;;;;;;;37.10;16.40;;;2.20;98.70;;;;;;5071297;28;20043;-72
2022/11/21 07:00:40;;;;;;;34.05;14.75;;;2.30;98.80;;;;;;5071916;28;20028;-72
2022/11/21 07:03:05;;;;;;;33.78;15.65;;;2.40;98.70;;;;;;5071165;28;20036;-73
2022/11/21 07:05:32;;;;;;;37.92;15.70;;;2.20;98.60;;;;;;5071287;28;20531;-72
2022/11/21 07:08:01;;;;;;;34.53;15.10;;;2.20;98.70;;;;;;5071219;28;20385;-72
2022/11/21 07:10:33;;;;;;;39.20;15.98;;;2.10;98.70;;;;;;5071269;28;20319;-71
2022/11/21 07:15:45;;;;;;;31.23;15.00;;;2.20;98.70;;;;;;5075550;28;20094;-71
2022/11/21 07:18:11;;;;;;;34.15;15.50;;;2.10;98.50;;;;;;5074301;28;20024;-73
2022/11/21 07:20:38;;;;;;;34.17;14.30;;;2.10;98.60;;;;;;5075625;28;20025;-72
2022/11/21 07:23:04;;;;;;;34.72;15.60;;;2.00;98.70;;;;;;5075677;28;20025;-71
2022/11/21 07:25:29;;;;;;;35.22;16.05;;;2.10;98.80;;;;;;5075131;28;20032;-72
2022/11/21 07:27:59;;;;;;;33.88;14.27;;;2.10;98.80;;;;;;5074805;28;20333;-71
2022/11/21 07:30:26;;;;;;;30.02;13.50;;;2.10;98.70;;;;;;5075293;28;20083;-72
2022/11/21 07:32:59;;;;;;;32.72;14.65;;;2.10;98.60;;;;;;5074908;28;20029;-71
2022/11/21 07:35:25;;;;;;;29.00;14.10;;;2.10;98.80;;;;;;5075129;28;20639;-72
2022/11/21 07:37:51;;;;;;;29.20;14.73;;;2.10;98.80;;;;;;5073685;28;20141;-70
2022/11/21 07:40:17;;;;;;;36.58;14.77;;;2.10;98.80;;;;;;5072334;28;20127;-70
2022/11/21 07:42:43;;;;;;;31.05;14.65;;;2.20;99.00;;;;;;5055170;28;20020;-71
2022/11/21 07:45:10;;;;;;;35.70;16.33;;;2.20;98.90;;;;;;5072166;28;20047;-70
2022/11/21 07:47:35;;;;;;;36.83;16.13;;;2.30;99.00;;;;;;5074829;28;20097;-71
2022/11/21 07:50:02;;;;;;;34.15;14.85;;;2.40;98.60;;;;;;5075128;28;20029;-71
2022/11/21 07:52:30;;;;;;;36.72;16.00;;;2.50;98.40;;;;;;5074583;28;20593;-69
2022/11/21 07:54:56;;;;;;;36.78;16.38;;;2.50;98.40;;;;;;5074295;28;20090;-73
2022/11/21 07:57:23;;;;;;;36.58;16.42;;;2.50;98.30;;;;;;5075096;28;20119;-73
2022/11/21 07:59:48;;;;;;;43.05;17.42;;;2.40;98.20;;;;;;5057488;28;20405;-73
2022/11/21 08:02:25;;;;;;;46.38;18.08;;;2.50;98.30;;;;;;5074910;28;20037;-71
2022/11/21 08:04:51;;;;;;;46.63;18.27;;;2.60;98.30;;;;;;5074997;28;20047;-70
2022/11/21 08:07:19;;;;;;;57.53;20.55;;;2.60;98.20;;;;;;5074151;28;20024;-73
2022/11/21 08:09:45;;;;;;;52.78;19.52;;;2.40;98.10;;;;;;5075724;28;20031;-72
2022/11/21 08:12:11;;;;;;;61.53;20.52;;;2.30;98.20;;;;;;5074474;28;20028;-72
2022/11/21 08:14:37;;;;;;;57.45;22.27;;;2.40;98.40;;;;;;5075529;28;20035;-71
2022/11/21 08:17:04;;;;;;;52.28;21.70;;;2.30;98.40;;;;;;5074915;28;20041;-73
2022/11/21 08:19:29;;;;;;;51.38;19.98;;;2.50;98.50;;;;;;5075165;28;20097;-74
2022/11/21 08:21:55;;;;;;;50.83;20.20;;;2.50;98.30;;;;;;5074987;28;20120;-74
2022/11/21 08:24:21;;;;;;;45.30;18.67;;;2.40;98.30;;;;;;5074779;28;20028;-72
2022/11/21 08:26:47;;;;;;;48.88;19.90;;;2.50;98.50;;;;;;5073511;28;20120;-74
2022/11/21 08:29:16;;;;;;;56.00;22.25;;;2.60;98.20;;;;;;5074338;28;20366;-78
2022/11/21 08:31:42;;;;;;;60.17;23.45;;;2.60;98.00;;;;;;5073216;28;20033;-72
2022/11/21 08:34:09;;;;;;;40.45;16.95;;;2.70;98.20;;;;;;5056203;28;20020;-71
2022/11/21 08:36:34;;;;;;;37.97;15.63;;;2.70;98.00;;;;;;5074431;28;20028;-72
2022/11/21 08:39:00;;;;;;;37.10;15.57;;;2.60;97.90;;;;;;5074177;28;20036;-72
2022/11/21 08:44:10;;;;;;;33.92;14.23;;;2.60;98.10;;;;;;5073762;28;20044;-73
2022/11/21 08:46:36;;;;;;;37.63;15.65;;;2.80;98.20;;;;;;5072771;28;20029;-72
2022/11/21 08:49:03;;;;;;;29.48;13.90;;;2.70;98.20;;;;;;5056363;28;20024;-72
2022/11/21 08:51:29;;;;;;;34.15;15.55;;;2.80;98.20;;;;;;5073763;28;20032;-71
2022/11/21 08:53:55;;;;;;;32.17;15.25;;;2.80;98.20;;;;;;5073617;28;20032;-73
2022/11/21 08:56:20;;;;;;;34.15;15.80;;;2.90;98.30;;;;;;5073401;28;20124;-72
2022/11/21 08:58:46;;;;;;;28.58;14.25;;;2.90;98.30;;;;;;5073458;28;20029;-71
2022/11/21 09:01:12;;;;;;;32.03;16.20;;;2.90;98.10;;;;;;5072212;28;20024;-72
2022/11/21 09:03:37;;;;;;;29.70;14.70;;;2.90;98.20;;;;;;5073881;28;20078;-70
2022/11/21 09:06:03;;;;;;;32.13;14.82;;;3.00;98.30;;;;;;5073189;28;20039;-75
2022/11/21 09:08:30;;;;;;;33.40;14.32;;;3.00;98.20;;;;;;5073014;28;20330;-72
2022/11/21 09:10:56;;;;;;;29.33;14.77;;;3.00;98.30;;;;;;5073216;28;20038;-73
2022/11/21 09:13:22;;;;;;;30.90;14.80;;;3.20;98.20;;;;;;5072999;28;20365;-71
2022/11/21 09:18:32;;;;;;;28.02;13.88;;;3.20;98.40;;;;;;5073113;28;20288;-71
2022/11/21 09:20:58;;;;;;;27.95;13.00;;;3.20;98.00;;;;;;5072878;28;20036;-72
2022/11/21 09:23:24;;;;;;;30.20;14.75;;;3.30;98.00;;;;;;5072816;28;20036;-72
2022/11/21 09:25:49;;;;;;;24.75;11.95;;;3.20;98.00;;;;;;5073056;28;20032;-71
2022/11/21 09:28:15;;;;;;;25.63;12.52;;;3.30;98.00;;;;;;5055130;28;20097;-73
2022/11/21 09:30:41;;;;;;;25.17;11.57;;;3.30;97.80;;;;;;5073408;28;20056;-72
2022/11/21 09:33:10;;;;;;;22.52;10.95;;;3.30;97.80;;;;;;5071621;28;20043;-69
2022/11/21 09:35:36;;;;;;;25.35;11.70;;;3.40;97.90;;;;;;5072505;28;20029;-71
2022/11/21 09:38:02;;;;;;;21.90;10.52;;;3.50;97.80;;;;;;5072568;28;20048;-73
2022/11/21 09:40:29;;;;;;;21.60;10.93;;;3.60;97.80;;;;;;5072471;28;20039;-70
2022/11/21 09:43:06;;;;;;;23.27;11.32;;;3.60;97.70;;;;;;5073056;28;20024;-70
2022/11/21 09:45:36;;;;;;;22.58;10.65;;;3.60;97.60;;;;;;5072661;28;20056;-71
2022/11/21 09:48:07;;;;;;;23.15;11.27;;;3.70;97.70;;;;;;5054470;28;20105;-72
2022/11/21 09:50:44;;;;;;;20.00;10.52;;;3.70;97.70;;;;;;5072436;28;20036;-71
2022/11/21 09:53:14;;;;;;;19.50;10.43;;;3.80;97.70;;;;;;5072454;28;20103;-73
2022/11/21 09:55:51;;;;;;;24.85;11.05;;;3.80;97.80;;;;;;5071119;28;20040;-73
2022/11/21 09:58:36;;;;;;;22.83;10.75;;;3.90;97.60;;;;;;5054657;28;20040;-73
2022/11/21 10:01:01;;;;;;;21.90;11.65;;;3.90;97.40;;;;;;5072577;28;20025;-74
2022/11/21 10:03:45;;;;;;;21.08;11.07;;;3.90;97.20;;;;;;5072356;28;20047;-72
2022/11/21 10:06:19;;;;;;;22.40;10.07;;;3.90;97.20;;;;;;5072023;28;20420;-72
2022/11/21 10:08:56;;;;;;;23.30;11.07;;;4.00;97.20;;;;;;5071666;28;20033;-69
2022/11/21 10:11:25;;;;;;;20.70;10.25;;;4.00;97.10;;;;;;5054251;28;20275;-72
2022/11/21 10:14:02;;;;;;;22.88;10.60;;;4.00;97.20;;;;;;5054107;28;20040;-71
2022/11/21 10:16:49;;;;;;;17.90;10.25;;;4.00;97.20;;;;;;5071844;28;20043;-71
2022/11/21 10:19:57;;;;;;;20.15;10.63;;;4.20;97.30;;;;;;5072171;28;20032;-72
2022/11/21 10:22:36;;;;;;;20.52;9.73;;;4.20;97.00;;;;;;5036936;28;20450;-71
2022/11/21 10:25:16;;;;;;;21.77;10.32;;;4.30;97.10;;;;;;5072578;28;20237;-73
2022/11/21 10:28:27;;;;;;;24.70;11.60;;;4.40;97.00;;;;;;5070928;28;20090;-72
2022/11/21 10:30:56;;;;;;;20.83;9.50;;;4.30;96.90;;;;;;5046051;28;20040;-72
2022/11/21 10:33:29;;;;;;;21.55;10.80;;;4.20;96.90;;;;;;5071827;28;20167;-71
2022/11/21 10:36:01;;;;;;;20.90;9.80;;;4.30;96.60;;;;;;5072036;28;20537;-75
2022/11/21 10:38:28;;;;;;;19.98;10.13;;;4.30;96.60;;;;;;5071523;28;20040;-74
2022/11/21 10:41:32;;;;;;;21.73;11.18;;;4.40;96.80;;;;;;5071783;28;20111;-73
2022/11/21 10:46:59;;;;;;;20.00;10.18;;;4.50;96.60;;;;;;5071803;28;20126;-72
2022/11/21 10:49:28;;;;;;;19.90;10.38;;;4.60;96.70;;;;;;5071397;28;20038;-73
2022/11/21 10:52:13;;;;;;;22.88;11.13;;;4.70;96.70;;;;;;5071840;28;20414;-73
2022/11/21 10:55:03;;;;;;;21.17;10.90;;;4.80;96.60;;;;;;5071607;28;20055;-72
2022/11/21 10:57:47;;;;;;;22.65;11.13;;;5.30;96.60;;;;;;5071468;28;20025;-72
2022/11/21 11:00:13;;;;;;;23.88;12.05;;;6.20;95.40;;;;;;5053874;28;20033;-73
2022/11/21 11:02:41;;;;;;;21.45;10.73;;;6.90;94.80;;;;;;5071328;28;20047;-73
2022/11/21 11:05:16;;;;;;;21.15;11.88;;;7.80;93.60;;;;;;5071468;28;20035;-73
2022/11/21 11:07:57;;;;;;;25.15;12.05;;;8.70;92.70;;;;;;5071141;28;20029;-74
2022/11/21 11:10:23;;;;;;;17.17;10.00;;;9.20;91.30;;;;;;5071577;28;20302;-72
2022/11/21 11:15:38;;;;;;;20.35;10.32;;;10.50;87.40;;;;;;5072129;28;20039;-74
2022/11/21 11:18:05;;;;;;;22.95;12.40;;;10.80;85.60;;;;;;5053928;28;20086;-75
2022/11/21 11:20:42;;;;;;;22.40;11.98;;;11.10;86.10;;;;;;5071647;28;20047;-75
2022/11/21 11:23:21;;;;;;;21.45;11.55;;;11.40;84.80;;;;;;5071446;28;20134;-73
2022/11/21 11:25:50;;;;;;;20.25;10.75;;;11.60;83.90;;;;;;5071637;28;20118;-76
2022/11/21 11:28:18;;;;;;;51.05;27.40;;;11.40;81.30;;;;;;5071292;28;20047;-76
2022/11/21 11:30:44;;;;;;;29.40;17.15;;;11.40;80.90;;;;;;5070762;28;20067;-77
2022/11/21 11:33:33;;;;;;;17.17;10.23;;;11.30;82.20;;;;;;5071474;28;20033;-74
2022/11/21 11:36:05;;;;;;;17.05;9.45;;;11.20;80.80;;;;;;5071130;28;20039;-73
2022/11/21 11:38:31;;;;;;;14.02;8.80;;;11.00;82.20;;;;;;5071245;28;20059;-73
2022/11/21 11:41:03;;;;;;;16.42;9.80;;;10.50;82.20;;;;;;5071040;28;20051;-71
2022/11/21 11:49:27;;;;;;;17.70;9.52;;;9.40;85.40;;;;;;5070996;28;20362;-74
2022/11/21 11:51:57;;;;;;;16.13;9.27;;;8.90;86.00;;;;;;5053634;28;20024;-70
2022/11/21 11:54:33;;;;;;;16.48;8.07;;;8.50;87.20;;;;;;5070932;28;20036;-73
2022/11/21 11:56:59;;;;;;;13.18;8.40;;;8.20;88.20;;;;;;5072042;28;20025;-71
2022/11/21 11:59:38;;;;;;;14.00;8.38;;;8.00;89.00;;;;;;5057545;28;20370;-70
2022/11/21 12:02:10;;;;;;;15.20;7.78;;;7.60;89.40;;;;;;5075110;28;20041;-70
2022/11/21 12:04:46;;;;;;;13.73;7.30;;;7.40;90.20;;;;;;5076083;28;20032;-72
2022/11/21 12:07:20;;;;;;;12.80;6.70;;;7.30;90.30;;;;;;5074870;28;20043;-72
2022/11/21 12:10:10;;;;;;;12.65;6.72;;;7.40;90.30;;;;;;5057909;28;20012;-73
2022/11/21 12:12:42;;;;;;;12.02;6.55;;;7.30;90.20;;;;;;5075852;28;20078;-74
2022/11/21 12:15:47;;;;;;;10.38;6.28;;;7.10;90.20;;;;;;5057282;28;20111;-74
2022/11/21 12:18:19;;;;;;;11.07;6.38;;;6.90;90.50;;;;;;5072815;28;20465;-74
2022/11/21 12:21:09;;;;;;;11.20;6.53;;;6.90;90.70;;;;;;5075786;28;20279;-74
2022/11/21 12:23:37;;;;;;;10.43;6.05;;;6.80;90.80;;;;;;5056945;28;20041;-72
2022/11/21 12:26:09;;;;;;;10.88;6.20;;;6.70;90.90;;;;;;5074261;28;20032;-73
2022/11/21 12:28:40;;;;;;;10.23;5.88;;;6.60;91.00;;;;;;5056381;28;20048;-76
2022/11/21 12:31:26;;;;;;;10.68;5.45;;;6.60;91.30;;;;;;5057692;28;20032;-74
2022/11/21 12:34:18;;;;;;;7.90;4.90;;;6.60;91.20;;;;;;5075747;28;20037;-73
2022/11/21 12:37:18;;;;;;;14.15;5.97;;;6.50;91.10;;;;;;5075002;28;20041;-74
2022/11/21 12:40:08;;;;;;;11.00;6.18;;;6.30;91.40;;;;;;5074972;28;20032;-73
2022/11/21 12:42:48;;;;;;;11.35;5.95;;;6.40;91.50;;;;;;5075318;28;20043;-75
2022/11/21 12:45:33;;;;;;;13.35;7.57;;;6.50;91.40;;;;;;5054238;28;20041;-70
2022/11/21 12:54:30;;;;;;;11.52;6.43;;;6.30;91.60;;;;;;5054042;28;20151;-75
2022/11/21 12:57:11;;;;;;;11.32;6.63;;;6.30;91.70;;;;;;5054158;28;20028;-72
2022/11/21 12:59:56;;;;;;;14.32;6.88;;;6.30;91.80;;;;;;5054034;28;20370;-74
2022/11/21 13:02:55;;;;;;;13.82;6.85;;;6.20;91.90;;;;;;5053848;28;20025;-73
2022/11/21 13:05:28;;;;;;;12.70;6.85;;;6.30;92.00;;;;;;5054927;28;20123;-76
2022/11/21 13:08:00;;;;;;;11.88;7.07;;;6.20;92.00;;;;;;5053435;28;20045;-77
2022/11/21 13:10:27;;;;;;;12.48;7.35;;;6.30;92.10;;;;;;5054539;28;20040;-78
2022/11/21 13:13:22;;;;;;;12.18;7.20;;;6.20;91.90;;;;;;5054350;28;20021;-74
2022/11/21 13:16:09;;;;;;;17.23;6.72;;;6.10;92.00;;;;;;5070568;28;20101;-74
2022/11/21 13:18:48;;;;;;;13.52;7.13;;;6.20;92.10;;;;;;5073902;28;20102;-74
2022/11/21 13:21:40;;;;;;;15.70;7.35;;;6.10;92.10;;;;;;5073904;28;20040;-74
2022/11/21 13:24:07;;;;;;;13.35;6.70;;;6.10;92.10;;;;;;5074278;28;20036;-72